createdAt,value
2022-10-08T00:00:27.971Z,1012.43
2022-10-08T00:01:28.019Z,1012.53
2022-10-08T00:02:27.945Z,1012.54
2022-10-08T00:03:27.934Z,1012.51
2022-10-08T00:04:27.999Z,1012.53
2022-10-08T00:05:27.917Z,1012.51
2022-10-08T00:06:27.906Z,1012.51
2022-10-08T00:07:27.897Z,1012.53
2022-10-08T00:08:27.889Z,1012.50
2022-10-08T00:09:27.919Z,1012.45
2022-10-08T00:10:27.867Z,1012.45
2022-10-08T00:11:27.886Z,1012.39
2022-10-08T00:12:27.838Z,1012.49
2022-10-08T00:13:27.826Z,1012.58
2022-10-08T00:14:27.820Z,1012.51
2022-10-08T00:15:27.827Z,1012.42
2022-10-08T00:16:27.877Z,1012.49
2022-10-08T00:17:27.830Z,1012.46
2022-10-08T00:18:27.774Z,1012.46
2022-10-08T00:19:27.764Z,1012.46
2022-10-08T00:20:27.754Z,1012.45
2022-10-08T00:21:27.765Z,1012.41
2022-10-08T00:22:27.732Z,1012.40
2022-10-08T00:23:27.721Z,1012.45
2022-10-08T00:24:27.708Z,1012.40
2022-10-08T00:25:27.729Z,1012.38
2022-10-08T00:26:27.711Z,1012.39
2022-10-08T00:27:27.695Z,1012.38
2022-10-08T00:28:27.777Z,1012.41
2022-10-08T00:29:27.658Z,1012.37
2022-10-08T00:30:27.650Z,1012.38
2022-10-08T00:31:27.798Z,1012.38
2022-10-08T00:32:27.631Z,1012.42
2022-10-08T00:33:27.612Z,1012.43
2022-10-08T00:34:27.601Z,1012.49
2022-10-08T00:35:27.590Z,1012.44
2022-10-08T00:36:27.577Z,1012.45
2022-10-08T00:37:27.591Z,1012.46
2022-10-08T00:38:27.559Z,1012.37
2022-10-08T00:39:27.546Z,1012.41
2022-10-08T00:40:27.532Z,1012.46
2022-10-08T00:41:27.556Z,1012.38
2022-10-08T00:42:27.532Z,1012.38
2022-10-08T00:43:27.629Z,1012.41
2022-10-08T00:44:27.494Z,1012.39
2022-10-08T00:45:27.519Z,1012.34
2022-10-08T00:46:27.499Z,1012.37
2022-10-08T00:47:27.482Z,1012.39
2022-10-08T00:48:27.448Z,1012.35
2022-10-08T00:49:27.443Z,1012.37
2022-10-08T00:50:27.432Z,1012.39
2022-10-08T00:51:27.422Z,1012.37
2022-10-08T00:52:27.435Z,1012.42
2022-10-08T00:53:27.399Z,1012.44
2022-10-08T00:54:27.382Z,1012.40
2022-10-08T00:55:27.374Z,1012.37
2022-10-08T00:56:27.359Z,1012.32
2022-10-08T00:57:27.385Z,1012.35
2022-10-08T00:58:27.341Z,1012.28
2022-10-08T00:59:27.372Z,1012.29
2022-10-08T01:00:27.321Z,1012.27
2022-10-08T01:01:27.357Z,1012.29
2022-10-08T01:02:27.348Z,1012.26
2022-10-08T01:03:27.288Z,1012.29
2022-10-08T01:04:27.297Z,1012.27
2022-10-08T01:05:27.270Z,1012.22
2022-10-08T01:06:27.256Z,1012.26
2022-10-08T01:07:27.248Z,1012.20
2022-10-08T01:08:27.257Z,1012.19
2022-10-08T01:09:27.220Z,1012.22
2022-10-08T01:10:27.215Z,1012.17
2022-10-08T01:11:27.201Z,1012.13
2022-10-08T01:12:27.194Z,1012.11
2022-10-08T01:13:27.183Z,1012.13
2022-10-08T01:14:27.193Z,1012.18
2022-10-08T01:15:27.177Z,1012.21
2022-10-08T01:16:27.227Z,1012.15
2022-10-08T01:17:27.136Z,1012.15
2022-10-08T01:18:27.128Z,1012.15
2022-10-08T01:19:27.140Z,1012.18
2022-10-08T01:20:27.102Z,1012.10
2022-10-08T01:21:27.096Z,1012.20
2022-10-08T01:22:27.082Z,1012.17
2022-10-08T01:23:27.083Z,1012.14
2022-10-08T01:24:27.089Z,1012.17
2022-10-08T01:25:27.050Z,1012.13
2022-10-08T01:26:27.035Z,1012.07
2022-10-08T01:27:27.030Z,1012.12
2022-10-08T01:28:27.091Z,1012.12
2022-10-08T01:29:27.032Z,1012.12
2022-10-08T01:30:26.994Z,1012.12
2022-10-08T01:31:27.082Z,1012.06
2022-10-08T01:32:26.973Z,1012.15
2022-10-08T01:33:26.961Z,1012.08
2022-10-08T01:34:26.951Z,1012.04
2022-10-08T01:35:26.966Z,1012.05
2022-10-08T01:36:26.930Z,1012.10
2022-10-08T01:37:26.919Z,1012.10
2022-10-08T01:38:26.913Z,1012.06
2022-10-08T01:39:26.898Z,1012.04
2022-10-08T01:40:26.903Z,1012.02
2022-10-08T01:41:26.871Z,1012.03
2022-10-08T01:42:26.863Z,1012.03
2022-10-08T01:43:26.864Z,1012.00
2022-10-08T01:44:26.839Z,1012.02
2022-10-08T01:45:26.924Z,1012.02
2022-10-08T01:46:26.817Z,1011.97
2022-10-08T01:47:26.828Z,1011.98
2022-10-08T01:48:26.821Z,1012.02
2022-10-08T01:49:26.791Z,1011.94
2022-10-08T01:50:26.777Z,1012.01
2022-10-08T01:51:26.765Z,1012.01
2022-10-08T01:52:26.755Z,1011.94
2022-10-08T01:53:26.761Z,1011.94
2022-10-08T01:54:26.730Z,1011.94
2022-10-08T01:55:26.740Z,1011.92
2022-10-08T01:56:26.709Z,1011.90
2022-10-08T01:57:26.702Z,1011.94
2022-10-08T01:58:26.685Z,1011.91
2022-10-08T01:59:26.683Z,1011.94
2022-10-08T02:00:26.688Z,1011.95
2022-10-08T02:01:26.729Z,1011.83
2022-10-08T02:02:26.727Z,1011.87
2022-10-08T02:03:26.672Z,1011.83
2022-10-08T02:04:26.619Z,1011.84
2022-10-08T02:05:26.610Z,1011.83
2022-10-08T02:06:26.600Z,1011.78
2022-10-08T02:07:26.589Z,1011.74
2022-10-08T02:08:26.603Z,1011.65
2022-10-08T02:09:26.590Z,1011.66
2022-10-08T02:10:26.563Z,1011.65
2022-10-08T02:11:26.552Z,1011.66
2022-10-08T02:12:26.533Z,1011.69
2022-10-08T02:13:26.529Z,1011.77
2022-10-08T02:14:26.536Z,1011.76
2022-10-08T02:15:26.533Z,1011.77
2022-10-08T02:16:26.593Z,1011.82
2022-10-08T02:17:26.486Z,1011.79
2022-10-08T02:18:26.479Z,1011.73
2022-10-08T02:19:26.508Z,1011.74
2022-10-08T02:20:26.467Z,1011.68
2022-10-08T02:21:26.442Z,1011.66
2022-10-08T02:22:26.432Z,1011.61
2022-10-08T02:23:26.417Z,1011.67
2022-10-08T02:24:26.433Z,1011.63
2022-10-08T02:25:26.418Z,1011.55
2022-10-08T02:26:26.385Z,1011.62
2022-10-08T02:27:26.372Z,1011.62
2022-10-08T02:28:26.442Z,1011.59
2022-10-08T02:29:26.353Z,1011.58
2022-10-08T02:30:26.361Z,1011.62
2022-10-08T02:31:26.400Z,1011.59
2022-10-08T02:32:26.316Z,1011.63
2022-10-08T02:33:26.305Z,1011.59
2022-10-08T02:34:26.293Z,1011.60
2022-10-08T02:35:26.329Z,1011.60
2022-10-08T02:36:26.278Z,1011.59
2022-10-08T02:37:26.261Z,1011.58
2022-10-08T02:38:26.255Z,1011.61
2022-10-08T02:39:26.240Z,1011.68
2022-10-08T02:40:26.259Z,1011.62
2022-10-08T02:41:26.228Z,1011.63
2022-10-08T02:42:26.206Z,1011.64
2022-10-08T02:43:26.203Z,1011.68
2022-10-08T02:44:26.186Z,1011.69
2022-10-08T02:45:26.191Z,1011.67
2022-10-08T02:46:26.187Z,1011.68
2022-10-08T02:47:26.152Z,1011.65
2022-10-08T02:48:26.145Z,1011.66
2022-10-08T02:49:26.133Z,1011.65
2022-10-08T02:50:26.144Z,1011.62
2022-10-08T02:51:26.132Z,1011.70
2022-10-08T02:52:26.100Z,1011.69
2022-10-08T02:53:26.096Z,1011.65
2022-10-08T02:54:26.076Z,1011.64
2022-10-08T02:55:26.090Z,1011.69
2022-10-08T02:56:26.052Z,1011.69
2022-10-08T02:57:26.045Z,1011.74
2022-10-08T02:58:26.057Z,1011.74
2022-10-08T02:59:26.020Z,1011.72
2022-10-08T03:00:26.045Z,1011.71
2022-10-08T03:01:26.048Z,1011.68
2022-10-08T03:02:26.030Z,1011.74
2022-10-08T03:03:25.987Z,1011.72
2022-10-08T03:04:25.970Z,1011.72
2022-10-08T03:05:25.958Z,1011.70
2022-10-08T03:06:25.963Z,1011.67
2022-10-08T03:07:25.955Z,1011.76
2022-10-08T03:08:25.943Z,1011.63
2022-10-08T03:09:25.918Z,1011.67
2022-10-08T03:10:25.901Z,1011.67
2022-10-08T03:11:25.889Z,1011.66
2022-10-08T03:12:25.883Z,1011.70
2022-10-08T03:13:25.893Z,1011.67
2022-10-08T03:14:25.880Z,1011.71
2022-10-08T03:15:25.850Z,1011.72
2022-10-08T03:16:25.905Z,1011.68
2022-10-08T03:17:25.825Z,1011.71
2022-10-08T03:18:25.837Z,1011.70
2022-10-08T03:19:25.813Z,1011.71
2022-10-08T03:20:25.801Z,1011.71
2022-10-08T03:21:25.803Z,1011.73
2022-10-08T03:22:25.779Z,1011.74
2022-10-08T03:23:25.829Z,1011.71
2022-10-08T03:24:25.779Z,1011.69
2022-10-08T03:25:25.739Z,1011.69
2022-10-08T03:26:25.731Z,1011.68
2022-10-08T03:27:25.715Z,1011.69
2022-10-08T03:28:25.731Z,1011.71
2022-10-08T03:29:25.712Z,1011.75
2022-10-08T03:30:25.711Z,1011.72
2022-10-08T03:31:25.671Z,1011.78
2022-10-08T03:32:25.668Z,1011.78
2022-10-08T03:33:25.654Z,1011.73
2022-10-08T03:34:25.672Z,1011.72
2022-10-08T03:35:25.629Z,1011.82
2022-10-08T03:36:25.622Z,1011.77
2022-10-08T03:37:25.607Z,1011.85
2022-10-08T03:38:25.599Z,1011.75
2022-10-08T03:39:25.641Z,1011.79
2022-10-08T03:40:25.574Z,1011.78
2022-10-08T03:41:25.566Z,1011.79
2022-10-08T03:42:25.553Z,1011.77
2022-10-08T03:43:25.542Z,1011.78
2022-10-08T03:44:25.535Z,1011.80
2022-10-08T03:45:25.546Z,1011.82
2022-10-08T03:46:25.561Z,1011.78
2022-10-08T03:47:25.521Z,1011.78
2022-10-08T03:48:25.495Z,1011.77
2022-10-08T03:49:25.479Z,1011.76
2022-10-08T03:50:25.489Z,1011.74
2022-10-08T03:51:25.457Z,1011.80
2022-10-08T03:52:25.448Z,1011.76
2022-10-08T03:53:25.438Z,1011.76
2022-10-08T03:54:25.426Z,1011.76
2022-10-08T03:55:25.518Z,1011.71
2022-10-08T03:56:25.401Z,1011.72
2022-10-08T03:57:25.392Z,1011.69
2022-10-08T03:58:25.415Z,1011.68
2022-10-08T03:59:25.367Z,1011.63
2022-10-08T04:00:25.357Z,1011.62
2022-10-08T04:01:25.390Z,1011.66
2022-10-08T04:02:25.378Z,1011.67
2022-10-08T04:03:25.361Z,1011.61
2022-10-08T04:04:25.832Z,1011.61
2022-10-08T04:05:25.305Z,1011.64
2022-10-08T04:06:25.294Z,1011.61
2022-10-08T04:07:25.282Z,1011.65
2022-10-08T04:08:25.269Z,1011.63
2022-10-08T04:09:25.280Z,1011.62
2022-10-08T04:10:25.247Z,1011.60
2022-10-08T04:11:25.262Z,1011.63
2022-10-08T04:12:25.229Z,1011.60
2022-10-08T04:13:25.228Z,1011.57
2022-10-08T04:14:25.223Z,1011.61
2022-10-08T04:15:25.355Z,1011.56
2022-10-08T04:16:25.187Z,1011.58
2022-10-08T04:17:25.172Z,1011.56
2022-10-08T04:18:25.160Z,1011.56
2022-10-08T04:19:25.179Z,1011.56
2022-10-08T04:20:25.140Z,1011.58
2022-10-08T04:21:25.123Z,1011.58
2022-10-08T04:22:25.118Z,1011.62
2022-10-08T04:23:25.108Z,1011.64
2022-10-08T04:24:25.116Z,1011.64
2022-10-08T04:25:25.085Z,1011.61
2022-10-08T04:26:25.077Z,1011.65
2022-10-08T04:27:25.083Z,1011.67
2022-10-08T04:28:25.089Z,1011.66
2022-10-08T04:29:25.071Z,1011.61
2022-10-08T04:30:25.028Z,1011.68
2022-10-08T04:31:25.094Z,1011.56
2022-10-08T04:32:25.011Z,1011.64
2022-10-08T04:33:24.997Z,1011.65
2022-10-08T04:34:24.990Z,1011.67
2022-10-08T04:35:24.988Z,1011.62
2022-10-08T04:36:24.980Z,1011.66
2022-10-08T04:37:24.955Z,1011.69
2022-10-08T04:38:24.950Z,1011.71
2022-10-08T04:39:24.931Z,1011.69
2022-10-08T04:40:24.923Z,1011.71
2022-10-08T04:41:24.913Z,1011.74
2022-10-08T04:42:24.926Z,1011.69
2022-10-08T04:43:24.905Z,1011.72
2022-10-08T04:44:24.877Z,1011.69
2022-10-08T04:45:24.869Z,1011.77
2022-10-08T04:46:25.031Z,1011.71
2022-10-08T04:47:24.869Z,1011.73
2022-10-08T04:48:24.838Z,1011.64
2022-10-08T04:49:24.825Z,1011.70
2022-10-08T04:50:24.813Z,1011.70
2022-10-08T04:51:24.801Z,1011.73
2022-10-08T04:52:24.838Z,1011.66
2022-10-08T04:53:24.782Z,1011.68
2022-10-08T04:54:24.767Z,1011.70
2022-10-08T04:55:24.786Z,1011.63
2022-10-08T04:56:24.750Z,1011.70
2022-10-08T04:57:24.736Z,1011.70
2022-10-08T04:58:24.726Z,1011.64
2022-10-08T04:59:24.732Z,1011.61
2022-10-08T05:00:24.724Z,1011.63
2022-10-08T05:01:24.769Z,1011.60
2022-10-08T05:02:24.775Z,1011.69
2022-10-08T05:03:24.687Z,1011.68
2022-10-08T05:04:24.664Z,1011.70
2022-10-08T05:05:24.670Z,1011.68
2022-10-08T05:06:24.641Z,1011.67
2022-10-08T05:07:24.628Z,1011.71
2022-10-08T05:08:24.618Z,1011.71
2022-10-08T05:09:24.605Z,1011.71
2022-10-08T05:10:24.619Z,1011.76
2022-10-08T05:11:24.585Z,1011.77
2022-10-08T05:12:24.576Z,1011.78
2022-10-08T05:13:24.584Z,1011.73
2022-10-08T05:14:24.552Z,1011.72
2022-10-08T05:15:24.569Z,1011.68
2022-10-08T05:16:24.748Z,1011.66
2022-10-08T05:17:24.523Z,1011.64
2022-10-08T05:18:24.505Z,1011.73
2022-10-08T05:19:24.497Z,1011.68
2022-10-08T05:20:24.483Z,1011.64
2022-10-08T05:21:24.533Z,1011.64
2022-10-08T05:22:24.473Z,1011.64
2022-10-08T05:23:24.453Z,1011.62
2022-10-08T05:24:24.445Z,1011.59
2022-10-08T05:25:24.433Z,1011.65
2022-10-08T05:26:41.468Z,1011.63
2022-10-08T05:27:25.430Z,1011.63
2022-10-08T05:28:24.516Z,1011.60
2022-10-08T05:29:24.419Z,1011.64
2022-10-08T05:30:24.377Z,1011.63
2022-10-08T05:31:24.446Z,1011.70
2022-10-08T05:32:24.363Z,1011.65
2022-10-08T05:33:24.342Z,1011.73
2022-10-08T05:34:24.358Z,1011.71
2022-10-08T05:35:24.323Z,1011.74
2022-10-08T05:36:24.311Z,1011.62
2022-10-08T05:37:24.304Z,1011.65
2022-10-08T05:38:24.288Z,1011.69
2022-10-08T05:39:24.301Z,1011.73
2022-10-08T05:40:24.283Z,1011.68
2022-10-08T05:41:24.255Z,1011.71
2022-10-08T05:42:24.246Z,1011.66
2022-10-08T05:43:24.236Z,1011.70
2022-10-08T05:44:24.255Z,1011.68
2022-10-08T05:45:24.214Z,1011.69
2022-10-08T05:46:24.233Z,1011.73
2022-10-08T05:47:24.210Z,1011.71
2022-10-08T05:48:24.183Z,1011.63
2022-10-08T05:49:24.193Z,1011.70
2022-10-08T05:50:24.164Z,1011.67
2022-10-08T05:51:24.182Z,1011.68
2022-10-08T05:52:24.161Z,1011.66
2022-10-08T05:53:24.124Z,1011.73
2022-10-08T05:54:24.133Z,1011.77
2022-10-08T05:55:24.106Z,1011.77
2022-10-08T05:56:24.095Z,1011.82
2022-10-08T05:57:24.109Z,1011.73
2022-10-08T05:58:28.468Z,1011.71
2022-10-08T05:59:25.068Z,1011.73
2022-10-08T06:00:24.051Z,1011.76
2022-10-08T06:01:24.041Z,1011.81
2022-10-08T06:02:24.140Z,1011.75
2022-10-08T06:03:24.038Z,1011.77
2022-10-08T06:04:24.058Z,1011.74
2022-10-08T06:05:24.028Z,1011.72
2022-10-08T06:06:23.987Z,1011.73
2022-10-08T06:07:24.001Z,1011.73
2022-10-08T06:08:23.966Z,1011.75
2022-10-08T06:09:23.958Z,1011.75
2022-10-08T06:10:23.943Z,1011.80
2022-10-08T06:11:23.932Z,1011.85
2022-10-08T06:12:23.938Z,1011.86
2022-10-08T06:13:23.910Z,1011.86
2022-10-08T06:14:23.902Z,1011.84
2022-10-08T06:15:23.918Z,1011.82
2022-10-08T06:16:23.935Z,1011.78
2022-10-08T06:17:23.864Z,1011.77
2022-10-08T06:18:23.858Z,1011.77
2022-10-08T06:19:23.864Z,1011.79
2022-10-08T06:20:25.707Z,1011.73
2022-10-08T06:21:23.825Z,1011.81
2022-10-08T06:22:23.815Z,1011.79
2022-10-08T06:23:23.818Z,1011.80
2022-10-08T06:24:23.795Z,1011.80
2022-10-08T06:25:23.797Z,1011.86
2022-10-08T06:26:23.784Z,1011.82
2022-10-08T06:27:23.761Z,1011.85
2022-10-08T06:28:23.832Z,1011.93
2022-10-08T06:29:23.816Z,1011.94
2022-10-08T06:30:23.727Z,1011.88
2022-10-08T06:31:23.837Z,1011.90
2022-10-08T06:32:23.705Z,1011.91
2022-10-08T06:33:23.721Z,1011.92
2022-10-08T06:34:23.687Z,1011.90
2022-10-08T06:35:23.708Z,1011.97
2022-10-08T06:36:23.679Z,1011.95
2022-10-08T06:37:23.655Z,1012.02
2022-10-08T06:38:23.639Z,1012.03
2022-10-08T06:39:23.630Z,1012.01
2022-10-08T06:40:23.642Z,1011.99
2022-10-08T06:41:23.612Z,1012.01
2022-10-08T06:42:23.623Z,1012.02
2022-10-08T06:43:23.596Z,1012.04
2022-10-08T06:44:23.577Z,1012.01
2022-10-08T06:45:23.592Z,1012.02
2022-10-08T06:46:23.616Z,1012.07
2022-10-08T06:47:23.565Z,1012.04
2022-10-08T06:48:23.533Z,1012.05
2022-10-08T06:49:23.525Z,1012.06
2022-10-08T06:50:23.512Z,1012.04
2022-10-08T06:51:23.527Z,1012.01
2022-10-08T06:52:23.517Z,1012.07
2022-10-08T06:53:23.482Z,1012.05
2022-10-08T06:54:23.466Z,1012.08
2022-10-08T06:55:23.457Z,1011.99
2022-10-08T06:56:23.473Z,1012.06
2022-10-08T06:57:23.459Z,1012.04
2022-10-08T06:58:23.425Z,1012.02
2022-10-08T06:59:23.414Z,1012.02
2022-10-08T07:00:23.404Z,1011.99
2022-10-08T07:01:23.466Z,1011.98
2022-10-08T07:02:23.458Z,1012.02
2022-10-08T07:03:23.371Z,1011.97
2022-10-08T07:04:23.363Z,1012.03
2022-10-08T07:05:23.351Z,1012.05
2022-10-08T07:06:23.365Z,1012.05
2022-10-08T07:07:23.367Z,1012.08
2022-10-08T07:08:23.323Z,1012.06
2022-10-08T07:09:23.315Z,1012.04
2022-10-08T07:10:23.300Z,1011.99
2022-10-08T07:11:23.316Z,1012.02
2022-10-08T07:12:23.284Z,1012.01
2022-10-08T07:13:23.259Z,1012.03
2022-10-08T07:14:23.259Z,1012.06
2022-10-08T07:15:23.239Z,1012.05
2022-10-08T07:16:23.407Z,1012.12
2022-10-08T07:17:23.218Z,1012.08
2022-10-08T07:18:23.218Z,1012.10
2022-10-08T07:19:23.201Z,1012.12
2022-10-08T07:20:23.195Z,1012.16
2022-10-08T07:21:23.213Z,1012.21
2022-10-08T07:22:23.168Z,1012.20
2022-10-08T07:23:23.198Z,1012.17
2022-10-08T07:24:23.146Z,1012.24
2022-10-08T07:25:23.134Z,1012.19
2022-10-08T07:26:23.120Z,1012.26
2022-10-08T07:27:23.107Z,1012.23
2022-10-08T07:28:23.222Z,1012.29
2022-10-08T07:29:23.090Z,1012.32
2022-10-08T07:30:23.078Z,1012.32
2022-10-08T07:31:23.111Z,1012.29
2022-10-08T07:32:23.061Z,1012.20
2022-10-08T07:33:23.068Z,1012.26
2022-10-08T07:34:23.036Z,1012.30
2022-10-08T07:35:23.020Z,1012.34
2022-10-08T07:36:23.012Z,1012.39
2022-10-08T07:37:23.022Z,1012.38
2022-10-08T07:38:23.015Z,1012.38
2022-10-08T07:39:22.999Z,1012.42
2022-10-08T07:40:22.971Z,1012.46
2022-10-08T07:41:22.965Z,1012.43
2022-10-08T07:42:22.947Z,1012.44
2022-10-08T07:43:22.965Z,1012.44
2022-10-08T07:44:22.924Z,1012.40
2022-10-08T07:45:22.951Z,1012.39
2022-10-08T07:46:22.899Z,1012.42
2022-10-08T07:47:22.934Z,1012.36
2022-10-08T07:48:22.907Z,1012.38
2022-10-08T07:49:22.875Z,1012.34
2022-10-08T07:50:22.864Z,1012.33
2022-10-08T07:51:22.850Z,1012.37
2022-10-08T07:52:22.839Z,1012.40
2022-10-08T07:53:22.857Z,1012.38
2022-10-08T07:54:22.812Z,1012.36
2022-10-08T07:55:22.823Z,1012.37
2022-10-08T07:56:22.794Z,1012.36
2022-10-08T07:57:22.783Z,1012.41
2022-10-08T07:58:22.807Z,1012.42
2022-10-08T07:59:22.761Z,1012.46
2022-10-08T08:00:26.159Z,1012.43
2022-10-08T08:01:22.810Z,1012.47
2022-10-08T08:02:22.782Z,1012.44
2022-10-08T08:03:22.720Z,1012.46
2022-10-08T08:04:22.738Z,1012.41
2022-10-08T08:05:22.696Z,1012.45
2022-10-08T08:06:22.683Z,1012.54
2022-10-08T08:07:22.683Z,1012.42
2022-10-08T08:08:22.665Z,1012.49
2022-10-08T08:09:22.681Z,1012.46
2022-10-08T08:10:22.639Z,1012.42
2022-10-08T08:11:22.788Z,1012.45
2022-10-08T08:12:22.624Z,1012.46
2022-10-08T08:13:22.624Z,1012.50
2022-10-08T08:14:22.636Z,1012.49
2022-10-08T08:15:22.589Z,1012.50
2022-10-08T08:16:22.676Z,1012.50
2022-10-08T08:17:22.586Z,1012.49
2022-10-08T08:18:22.555Z,1012.51
2022-10-08T08:19:22.569Z,1012.52
2022-10-08T08:20:22.536Z,1012.57
2022-10-08T08:21:22.538Z,1012.48
2022-10-08T08:22:22.536Z,1012.48
2022-10-08T08:23:22.509Z,1012.50
2022-10-08T08:24:22.514Z,1012.48
2022-10-08T08:25:22.496Z,1012.52
2022-10-08T08:26:22.471Z,1012.52
2022-10-08T08:27:22.479Z,1012.54
2022-10-08T08:28:22.566Z,1012.60
2022-10-08T08:29:22.465Z,1012.53
2022-10-08T08:30:22.431Z,1012.55
2022-10-08T08:31:22.485Z,1012.55
2022-10-08T08:32:27.547Z,1012.55
2022-10-08T08:33:23.407Z,1012.59
2022-10-08T08:34:22.410Z,1012.57
2022-10-08T08:35:22.375Z,1012.60
2022-10-08T08:36:22.397Z,1012.58
2022-10-08T08:37:22.353Z,1012.53
2022-10-08T08:38:22.340Z,1012.56
2022-10-08T08:39:22.331Z,1012.56
2022-10-08T08:40:22.321Z,1012.58
2022-10-08T08:41:22.310Z,1012.61
2022-10-08T08:42:22.316Z,1012.63
2022-10-08T08:43:22.306Z,1012.52
2022-10-08T08:44:22.299Z,1012.64
2022-10-08T08:45:44.629Z,1012.58
2022-10-08T08:46:23.301Z,1012.58
2022-10-08T08:47:22.247Z,1012.61
2022-10-08T08:48:22.231Z,1012.58
2022-10-08T08:49:22.254Z,1012.58
2022-10-08T08:50:22.216Z,1012.51
2022-10-08T08:51:22.198Z,1012.53
2022-10-08T08:52:22.187Z,1012.53
2022-10-08T08:53:22.188Z,1012.51
2022-10-08T08:54:22.195Z,1012.50
2022-10-08T08:55:22.155Z,1012.54
2022-10-08T08:56:22.153Z,1012.57
2022-10-08T08:57:22.140Z,1012.53
2022-10-08T08:58:22.125Z,1012.58
2022-10-08T08:59:22.155Z,1012.60
2022-10-08T09:00:22.101Z,1012.63
2022-10-08T09:01:22.184Z,1012.58
2022-10-08T09:02:22.102Z,1012.63
2022-10-08T09:03:22.069Z,1012.68
2022-10-08T09:04:22.060Z,1012.69
2022-10-08T09:05:22.178Z,1012.63
2022-10-08T09:06:22.037Z,1012.64
2022-10-08T09:07:22.023Z,1012.66
2022-10-08T09:08:22.023Z,1012.69
2022-10-08T09:09:22.006Z,1012.71
2022-10-08T09:10:22.021Z,1012.69
2022-10-08T09:11:22.014Z,1012.68
2022-10-08T09:12:21.972Z,1012.67
2022-10-08T09:13:21.957Z,1012.69
2022-10-08T09:14:21.947Z,1012.77
2022-10-08T09:15:21.978Z,1012.76
2022-10-08T09:16:21.948Z,1012.79
2022-10-08T09:17:21.938Z,1012.86
2022-10-08T09:18:21.904Z,1012.78
2022-10-08T09:19:21.892Z,1012.75
2022-10-08T09:20:21.956Z,1012.85
2022-10-08T09:21:21.876Z,1012.91
2022-10-08T09:22:21.864Z,1012.88
2022-10-08T09:23:21.847Z,1012.82
2022-10-08T09:24:21.835Z,1012.84
2022-10-08T09:25:21.843Z,1012.83
2022-10-08T09:26:21.819Z,1012.89
2022-10-08T09:27:21.839Z,1012.84
2022-10-08T09:28:21.840Z,1012.87
2022-10-08T09:29:21.782Z,1012.88
2022-10-08T09:30:21.953Z,1012.91
2022-10-08T09:31:21.898Z,1012.85
2022-10-08T09:32:21.765Z,1012.88
2022-10-08T09:33:21.765Z,1012.90
2022-10-08T09:34:21.731Z,1012.96
2022-10-08T09:35:21.738Z,1012.94
2022-10-08T09:36:21.706Z,1013.06
2022-10-08T09:37:21.700Z,1012.94
2022-10-08T09:38:21.709Z,1012.97
2022-10-08T09:39:21.675Z,1012.97
2022-10-08T09:40:21.815Z,1013.03
2022-10-08T09:41:21.655Z,1013.04
2022-10-08T09:42:21.646Z,1013.02
2022-10-08T09:43:21.657Z,1013.01
2022-10-08T09:44:21.649Z,1013.00
2022-10-08T09:45:22.377Z,1013.17
2022-10-08T09:46:21.658Z,1013.02
2022-10-08T09:47:21.607Z,1013.01
2022-10-08T09:48:21.578Z,1013.01
2022-10-08T09:49:21.611Z,1012.99
2022-10-08T09:50:21.560Z,1012.95
2022-10-08T09:51:21.544Z,1012.93
2022-10-08T09:52:21.566Z,1013.00
2022-10-08T09:53:21.525Z,1012.94
2022-10-08T09:54:21.513Z,1012.93
2022-10-08T09:55:21.510Z,1013.00
2022-10-08T09:56:21.490Z,1013.03
2022-10-08T09:57:21.501Z,1013.03
2022-10-08T09:58:21.467Z,1013.04
2022-10-08T09:59:21.459Z,1013.06
2022-10-08T10:00:21.449Z,1013.03
2022-10-08T10:01:21.554Z,1013.08
2022-10-08T10:02:21.447Z,1013.09
2022-10-08T10:03:21.468Z,1013.16
2022-10-08T10:04:21.406Z,1013.17
2022-10-08T10:05:21.391Z,1013.14
2022-10-08T10:06:21.408Z,1013.16
2022-10-08T10:07:21.374Z,1013.14
2022-10-08T10:08:21.381Z,1013.13
2022-10-08T10:09:21.352Z,1013.12
2022-10-08T10:10:21.335Z,1013.15
2022-10-08T10:11:21.327Z,1013.19
2022-10-08T10:12:21.322Z,1013.12
2022-10-08T10:13:21.327Z,1013.14
2022-10-08T10:14:21.349Z,1013.09
2022-10-08T10:15:21.339Z,1013.17
2022-10-08T10:16:21.315Z,1013.12
2022-10-08T10:17:21.288Z,1013.17
2022-10-08T10:18:21.278Z,1013.14
2022-10-08T10:19:21.260Z,1013.16
2022-10-08T10:20:21.251Z,1013.27
2022-10-08T10:21:21.222Z,1013.22
2022-10-08T10:22:21.206Z,1013.26
2022-10-08T10:23:21.219Z,1013.26
2022-10-08T10:24:21.191Z,1013.22
2022-10-08T10:25:21.175Z,1013.27
2022-10-08T10:26:21.174Z,1013.24
2022-10-08T10:27:21.191Z,1013.30
2022-10-08T10:28:21.180Z,1013.27
2022-10-08T10:29:21.141Z,1013.28
2022-10-08T10:30:21.125Z,1013.34
2022-10-08T10:31:21.191Z,1013.28
2022-10-08T10:32:21.818Z,1013.31
2022-10-08T10:33:21.115Z,1013.34
2022-10-08T10:34:21.080Z,1013.33
2022-10-08T10:35:21.095Z,1013.34
2022-10-08T10:36:21.060Z,1013.41
2022-10-08T10:37:21.051Z,1013.42
2022-10-08T10:38:21.058Z,1013.44
2022-10-08T10:39:21.026Z,1013.42
2022-10-08T10:40:21.017Z,1013.33
2022-10-08T10:41:21.003Z,1013.33
2022-10-08T10:42:20.999Z,1013.28
2022-10-08T10:43:21.013Z,1013.33
2022-10-08T10:44:20.970Z,1013.25
2022-10-08T10:45:20.962Z,1013.31
2022-10-08T10:46:20.998Z,1013.28
2022-10-08T10:47:20.937Z,1013.33
2022-10-08T10:48:20.955Z,1013.33
2022-10-08T10:49:20.917Z,1013.31
2022-10-08T10:50:20.905Z,1013.41
2022-10-08T10:51:20.918Z,1013.32
2022-10-08T10:52:20.885Z,1013.29
2022-10-08T10:53:20.899Z,1013.37
2022-10-08T10:54:20.864Z,1013.34
2022-10-08T10:55:20.858Z,1013.34
2022-10-08T10:56:20.867Z,1013.28
2022-10-08T10:57:20.833Z,1013.26
2022-10-08T10:58:20.820Z,1013.27
2022-10-08T10:59:20.830Z,1013.21
2022-10-08T11:00:20.898Z,1013.28
2022-10-08T11:01:20.837Z,1013.25
2022-10-08T11:02:20.830Z,1013.30
2022-10-08T11:03:20.773Z,1013.30
2022-10-08T11:04:20.763Z,1013.27
2022-10-08T11:05:20.749Z,1013.31
2022-10-08T11:06:20.731Z,1013.32
2022-10-08T11:07:20.840Z,1013.36
2022-10-08T11:08:20.710Z,1013.28
2022-10-08T11:09:20.706Z,1013.33
2022-10-08T11:10:20.686Z,1013.31
2022-10-08T11:11:20.682Z,1013.31
2022-10-08T11:12:20.696Z,1013.36
2022-10-08T11:13:20.661Z,1013.31
2022-10-08T11:14:20.647Z,1013.36
2022-10-08T11:15:20.637Z,1013.43
2022-10-08T11:16:20.690Z,1013.38
2022-10-08T11:17:22.191Z,1013.41
2022-10-08T11:18:20.602Z,1013.40
2022-10-08T11:19:20.597Z,1013.45
2022-10-08T11:20:20.586Z,1013.44
2022-10-08T11:21:20.572Z,1013.38
2022-10-08T11:22:20.565Z,1013.40
2022-10-08T11:23:20.592Z,1013.44
2022-10-08T11:24:20.538Z,1013.33
2022-10-08T11:25:20.552Z,1013.40
2022-10-08T11:26:23.158Z,1013.40
2022-10-08T11:27:20.511Z,1013.38
2022-10-08T11:28:20.594Z,1013.35
2022-10-08T11:29:20.484Z,1013.40
2022-10-08T11:30:20.493Z,1013.35
2022-10-08T11:31:20.525Z,1013.38
2022-10-08T11:32:20.481Z,1013.34
2022-10-08T11:33:20.473Z,1013.36
2022-10-08T11:34:20.431Z,1013.41
2022-10-08T11:35:20.417Z,1013.37
2022-10-08T11:36:20.407Z,1013.41
2022-10-08T11:37:20.399Z,1013.38
2022-10-08T11:38:20.392Z,1013.38
2022-10-08T11:39:20.419Z,1013.37
2022-10-08T11:40:20.362Z,1013.38
2022-10-08T11:41:20.349Z,1013.39
2022-10-08T11:42:20.339Z,1013.41
2022-10-08T11:43:20.348Z,1013.49
2022-10-08T11:44:20.322Z,1013.48
2022-10-08T11:45:20.303Z,1013.44
2022-10-08T11:46:20.390Z,1013.44
2022-10-08T11:47:20.283Z,1013.44
2022-10-08T11:48:20.295Z,1013.43
2022-10-08T11:49:20.258Z,1013.39
2022-10-08T11:50:20.250Z,1013.42
2022-10-08T11:51:20.273Z,1013.40
2022-10-08T11:52:20.237Z,1013.32
2022-10-08T11:53:20.217Z,1013.39
2022-10-08T11:54:20.212Z,1013.40
2022-10-08T11:55:20.213Z,1013.37
2022-10-08T11:56:20.209Z,1013.38
2022-10-08T11:57:20.174Z,1013.37
2022-10-08T11:58:20.187Z,1013.40
2022-10-08T11:59:20.156Z,1013.42
2022-10-08T12:00:20.141Z,1013.37
2022-10-08T12:01:20.154Z,1013.38
2022-10-08T12:02:20.279Z,1013.32
2022-10-08T12:03:20.298Z,1013.31
2022-10-08T12:04:20.098Z,1013.37
2022-10-08T12:05:20.090Z,1013.39